createdAt,value
2022-08-31T00:00:13.237Z,95.47361
2022-08-31T00:05:14.669Z,96.32294
2022-08-31T00:10:16.339Z,95.8268
2022-08-31T00:15:17.935Z,94.99973
2022-08-31T00:20:32.843Z,94.74516
2022-08-31T00:25:35.777Z,93.06765
2022-08-31T00:30:37.713Z,94.44958
2022-08-31T00:35:39.183Z,94.05386
2022-08-31T00:40:44.747Z,93.0641
2022-08-31T00:45:47.065Z,91.13627
2022-08-31T00:50:48.805Z,90.8897
2022-08-31T00:55:50.565Z,91.16266
2022-08-31T01:00:52.578Z,92.03558
2022-08-31T01:05:54.333Z,90.69716
2022-08-31T01:10:55.993Z,91.72009
2022-08-31T01:15:57.771Z,91.71451
2022-08-31T01:20:59.759Z,88.8848
2022-08-31T01:26:01.813Z,90.05037
2022-08-31T01:31:03.975Z,90.57575
2022-08-31T01:36:05.983Z,87.34876
2022-08-31T01:41:07.725Z,87.24896
2022-08-31T01:46:09.393Z,88.72254
2022-08-31T01:51:12.476Z,85.174
2022-08-31T01:56:14.246Z,90.4822
2022-08-31T02:01:34.342Z,89.46487
2022-08-31T02:06:36.599Z,88.51758
2022-08-31T02:11:38.163Z,88.77336
2022-08-31T02:16:39.890Z,87.77112
2022-08-31T02:21:41.673Z,87.31044
2022-08-31T02:26:43.216Z,88.01039
2022-08-31T02:31:45.348Z,86.48898
2022-08-31T02:36:47.204Z,88.96544
2022-08-31T02:41:48.935Z,86.58554
2022-08-31T02:46:51.092Z,88.44561
2022-08-31T02:51:52.906Z,89.01545
2022-08-31T02:56:54.470Z,88.14683
2022-08-31T03:01:56.412Z,87.27359
2022-08-31T03:06:57.959Z,88.64996
2022-08-31T03:11:59.573Z,85.47978
2022-08-31T03:17:01.269Z,87.9389
2022-08-31T03:22:02.902Z,87.69734
2022-08-31T03:27:04.344Z,85.22395
2022-08-31T03:32:06.133Z,86.85951
2022-08-31T03:37:07.583Z,87.68651
2022-08-31T03:42:09.241Z,87.77092
2022-08-31T03:47:11.111Z,86.77382
2022-08-31T03:52:16.209Z,89.43199
2022-08-31T03:57:17.692Z,86.11443
2022-08-31T04:02:19.559Z,88.35985
2022-08-31T04:07:21.277Z,84.54705
2022-08-31T04:12:22.704Z,86.34117
2022-08-31T04:17:24.420Z,83.26866
2022-08-31T04:22:26.017Z,86.82239
2022-08-31T04:27:27.680Z,89.19656
2022-08-31T04:32:29.906Z,86.29482
2022-08-31T04:37:31.614Z,86.33116
2022-08-31T04:42:33.275Z,85.70993
2022-08-31T04:47:35.139Z,84.09875
2022-08-31T04:52:36.901Z,85.06138
2022-08-31T04:57:38.706Z,84.56582
2022-08-31T05:02:41.174Z,85.80959
2022-08-31T05:07:42.999Z,82.75916
2022-08-31T05:12:44.636Z,80.39542
2022-08-31T05:17:46.284Z,80.88222
2022-08-31T05:22:48.167Z,80.96772
2022-08-31T05:27:49.843Z,81.74443
2022-08-31T05:32:52.157Z,83.37264
2022-08-31T05:37:53.946Z,79.72533
2022-08-31T05:42:55.910Z,76.39448
2022-08-31T05:47:58.121Z,77.71008
2022-08-31T05:52:59.877Z,74.53591
2022-08-31T05:58:01.623Z,74.26993
2022-08-31T06:03:03.688Z,74.45384
2022-08-31T06:08:05.599Z,74.12731
2022-08-31T06:13:07.640Z,72.79475
2022-08-31T06:18:09.845Z,74.78106
2022-08-31T06:23:11.829Z,73.85598
2022-08-31T06:28:13.664Z,74.72131
2022-08-31T06:33:16.421Z,74.28706
2022-08-31T06:38:17.991Z,72.42589
2022-08-31T06:43:19.902Z,70.86559
2022-08-31T06:48:21.601Z,71.96327
2022-08-31T06:53:23.160Z,70.76215
2022-08-31T06:58:24.731Z,68.71718
2022-08-31T07:03:27.237Z,72.09947
2022-08-31T07:08:28.794Z,70.10289
2022-08-31T07:13:30.250Z,65.7726
2022-08-31T07:18:33.543Z,64.21944
2022-08-31T07:23:35.418Z,64.60651
2022-08-31T07:28:36.898Z,65.98839
2022-08-31T07:33:39.059Z,62.57519
2022-08-31T07:38:40.584Z,64.98566
2022-08-31T07:43:42.128Z,61.72656
2022-08-31T07:48:43.809Z,61.91678
2022-08-31T07:53:45.525Z,61.00386
2022-08-31T07:58:47.334Z,60.76151
2022-08-31T08:03:49.308Z,59.01186
2022-08-31T08:09:12.676Z,61.00463
2022-08-31T08:14:23.704Z,56.65918
2022-08-31T08:19:26.978Z,56.79421
2022-08-31T08:24:28.584Z,59.34927
2022-08-31T08:29:33.613Z,57.4833
2022-08-31T08:34:35.950Z,56.58159
2022-08-31T08:39:37.600Z,58.38293
2022-08-31T08:44:39.389Z,57.69552
2022-08-31T08:49:41.315Z,56.68824
2022-08-31T08:54:43.498Z,59.18185
2022-08-31T08:59:45.298Z,56.69025
2022-08-31T09:04:47.496Z,60.58889
2022-08-31T09:09:49.379Z,60.45589
2022-08-31T09:14:51.265Z,61.02405
2022-08-31T09:19:52.717Z,56.94239
2022-08-31T09:24:54.666Z,56.704
2022-08-31T09:29:56.481Z,56.3214
2022-08-31T09:34:58.613Z,55.91141
2022-08-31T09:40:04.310Z,52.7504
2022-08-31T09:45:08.673Z,53.49147
2022-08-31T09:50:10.452Z,56.50391
2022-08-31T09:55:12.239Z,57.791
2022-08-31T10:00:14.212Z,55.89002
2022-08-31T10:05:16.409Z,54.17767
2022-08-31T10:10:28.161Z,56.27584
2022-08-31T10:15:33.858Z,55.61147
2022-08-31T10:20:35.952Z,55.69031
2022-08-31T10:25:37.776Z,57.01922
2022-08-31T10:30:39.670Z,54.32834
2022-08-31T10:35:41.582Z,54.47092
2022-08-31T10:40:43.095Z,53.59229
2022-08-31T10:45:44.725Z,53.72563
2022-08-31T10:50:46.639Z,53.66906
2022-08-31T10:55:48.249Z,55.01443
2022-08-31T11:00:49.979Z,53.29724
2022-08-31T11:05:51.900Z,51.12993
2022-08-31T11:10:53.346Z,49.62022
2022-08-31T11:15:55.162Z,48.75336
2022-08-31T11:20:57.005Z,53.17062
2022-08-31T11:25:59.016Z,48.63023
2022-08-31T11:31:01.037Z,47.82388
2022-08-31T11:36:06.758Z,48.04367
2022-08-31T11:41:09.486Z,48.27001
2022-08-31T11:46:11.378Z,49.86336
2022-08-31T11:51:14.602Z,47.24857
2022-08-31T11:56:16.389Z,46.5611
2022-08-31T12:01:17.899Z,47.30999
2022-08-31T12:06:19.732Z,46.28046
2022-08-31T12:11:21.283Z,47.91871
2022-08-31T12:16:22.797Z,44.08773
2022-08-31T12:21:24.553Z,44.81917
2022-08-31T12:26:26.322Z,45.01214
2022-08-31T12:31:28.189Z,44.66576
2022-08-31T12:36:30.368Z,42.94011
2022-08-31T12:41:32.033Z,42.24917
2022-08-31T12:46:34.181Z,42.03468
2022-08-31T12:51:35.778Z,40.95942
2022-08-31T12:56:37.748Z,42.06104
2022-08-31T13:01:39.597Z,40.64533
2022-08-31T13:06:41.697Z,41.67697
2022-08-31T13:11:43.478Z,43.39232
2022-08-31T13:16:45.561Z,41.66739
2022-08-31T13:21:47.769Z,41.33271
2022-08-31T13:26:49.527Z,43.84884
2022-08-31T13:31:51.296Z,44.15598
2022-08-31T13:36:53.802Z,43.83336
2022-08-31T13:41:55.824Z,41.91112
2022-08-31T13:46:57.503Z,42.53499
2022-08-31T13:51:59.536Z,43.6339
2022-08-31T13:57:01.324Z,40.83117
2022-08-31T14:02:03.346Z,41.78792
2022-08-31T14:07:05.541Z,41.11652
2022-08-31T14:12:07.387Z,41.29023
2022-08-31T14:17:09.292Z,41.29135
2022-08-31T14:22:11.124Z,42.84848
2022-08-31T14:27:13.093Z,41.84864
2022-08-31T14:32:15.155Z,41.76964
2022-08-31T14:37:17.618Z,40.8058
2022-08-31T14:42:19.096Z,41.88977
2022-08-31T14:47:20.662Z,41.53467
2022-08-31T14:52:22.435Z,41.77555
2022-08-31T14:57:24.074Z,42.29029
2022-08-31T15:02:25.583Z,42.38798
2022-08-31T15:07:27.350Z,42.35983
2022-08-31T15:12:28.822Z,42.68271
2022-08-31T15:17:30.378Z,42.69354
2022-08-31T15:22:31.866Z,44.28814
2022-08-31T15:27:33.423Z,44.36178
2022-08-31T15:32:35.049Z,43.88167
2022-08-31T15:37:36.908Z,45.01968
2022-08-31T15:42:38.698Z,45.5995
2022-08-31T15:47:40.141Z,46.09836
2022-08-31T15:52:42.139Z,47.25995
2022-08-31T15:57:44.103Z,47.42353
2022-08-31T16:02:46.000Z,48.44065
2022-08-31T16:07:48.002Z,50.14215
2022-08-31T16:12:49.757Z,50.02825
2022-08-31T16:17:51.454Z,51.32203
2022-08-31T16:22:53.331Z,51.90893
2022-08-31T16:27:55.017Z,53.22829
2022-08-31T16:32:56.675Z,52.78537
2022-08-31T16:37:58.768Z,53.74031
2022-08-31T16:43:00.681Z,53.99509
2022-08-31T16:48:02.799Z,54.55018
2022-08-31T16:53:04.606Z,55.13105
2022-08-31T16:58:06.650Z,55.39357
2022-08-31T17:03:08.510Z,55.56162
2022-08-31T17:08:10.763Z,55.79319
2022-08-31T17:13:12.750Z,55.91462
2022-08-31T17:18:14.677Z,55.85699
2022-08-31T17:23:16.186Z,55.80342
2022-08-31T17:28:18.086Z,56.59423
2022-08-31T17:33:19.848Z,56.76201
2022-08-31T17:38:21.706Z,58.55824
2022-08-31T17:43:23.202Z,59.54074
2022-08-31T17:48:28.672Z,58.31433
2022-08-31T17:53:32.028Z,58.74352
2022-08-31T17:58:33.673Z,58.68466
2022-08-31T18:03:35.238Z,58.57098
2022-08-31T18:08:37.172Z,58.84695
2022-08-31T18:13:38.751Z,57.41955
2022-08-31T18:18:40.508Z,58.11964
2022-08-31T18:23:42.229Z,58.44896
2022-08-31T18:28:43.772Z,59.1961
2022-08-31T18:33:45.216Z,58.98463
2022-08-31T18:38:47.211Z,60.18106
2022-08-31T18:43:48.700Z,59.85994
2022-08-31T18:48:50.256Z,61.13515
2022-08-31T18:53:51.919Z,60.79627
2022-08-31T18:58:53.518Z,62.85425
2022-08-31T19:03:55.283Z,64.21096
2022-08-31T19:08:57.194Z,63.48381
2022-08-31T19:13:59.293Z,62.16277
2022-08-31T19:19:01.144Z,60.84778
2022-08-31T19:24:03.114Z,58.5123
2022-08-31T19:29:07.203Z,57.28863
2022-08-31T19:34:09.012Z,55.01138
2022-08-31T19:39:11.335Z,53.49333
2022-08-31T19:44:13.233Z,52.86663
2022-08-31T19:49:14.699Z,51.37663
2022-08-31T19:54:16.619Z,51.38515
2022-08-31T19:59:18.132Z,51.66538
2022-08-31T20:04:19.982Z,49.15951
2022-08-31T20:09:25.514Z,49.24291
2022-08-31T20:14:26.977Z,50.3741
2022-08-31T20:19:28.388Z,49.81542
2022-08-31T20:24:29.819Z,48.87315
2022-08-31T20:29:33.393Z,48.48577
2022-08-31T20:34:35.868Z,49.34816
2022-08-31T20:39:38.012Z,49.31164
2022-08-31T20:44:39.911Z,49.73348
2022-08-31T20:49:41.429Z,49.96986
2022-08-31T20:54:43.178Z,51.07902
2022-08-31T20:59:44.963Z,49.80136
2022-08-31T21:04:46.781Z,49.12531
2022-08-31T21:09:48.978Z,50.9604
2022-08-31T21:14:50.752Z,50.93422
2022-08-31T21:19:52.647Z,49.12373
2022-08-31T21:24:54.542Z,52.58194
2022-08-31T21:29:56.419Z,50.41641
2022-08-31T21:34:58.190Z,48.55637
2022-08-31T21:40:01.034Z,48.66358
2022-08-31T21:45:03.716Z,49.30378
2022-08-31T21:50:05.688Z,48.57756
2022-08-31T21:55:07.469Z,50.15209
2022-08-31T22:00:09.360Z,49.3386
2022-08-31T22:05:11.244Z,49.89815
2022-08-31T22:10:14.167Z,50.87361
2022-08-31T22:15:15.949Z,50.64616
2022-08-31T22:20:17.945Z,49.33687
2022-08-31T22:25:20.443Z,51.00586
2022-08-31T22:30:21.874Z,51.62594
2022-08-31T22:35:23.524Z,53.18708
2022-08-31T22:40:25.272Z,51.71863
2022-08-31T22:45:26.855Z,51.67402
2022-08-31T22:50:28.409Z,52.35841
2022-08-31T22:55:29.944Z,54.14252
2022-08-31T23:00:31.395Z,53.74365
2022-08-31T23:05:32.874Z,53.09429
2022-08-31T23:10:34.670Z,52.60177
2022-08-31T23:15:36.150Z,52.10244
2022-08-31T23:20:38.071Z,53.82804
2022-08-31T23:25:39.880Z,52.8558
2022-08-31T23:30:41.793Z,52.81227
2022-08-31T23:35:43.599Z,52.67149
2022-08-31T23:40:45.752Z,53.8615
2022-08-31T23:45:47.516Z,54.80376
2022-08-31T23:50:49.232Z,56.0482
2022-08-31T23:55:50.943Z,53.56344
